Time;durP1;ratioP1;P1;durP2;ratioP2;P2;SDS_P1;SDS_P2;PMS_P1;PMS_P2;Temp;Humidity;BMP_temperature;BMP_pressure;BME280_temperature;BME280_humidity;BME280_pressure;Samples;Min_cycle;Max_cycle;Signal;HPM_P1;HPM_P2
2024/04/17 00:01:46;;;;;;;16.42;4.75;;;;;;;5.88;100.00;63555.31;5431269;26;19999;-72
2024/04/17 00:04:12;;;;;;;15.52;4.38;;;;;;;5.83;100.00;63598.47;5426450;26;20003;-71
2024/04/17 00:06:38;;;;;;;16.65;4.95;;;;;;;5.72;100.00;63576.38;5386006;26;19999;-72
2024/04/17 00:09:04;;;;;;;14.65;4.03;;;;;;;5.68;100.00;63549.13;5416300;26;20476;-72
2024/04/17 00:11:30;;;;;;;17.50;4.75;;;;;;;5.56;100.00;63531.09;5426082;26;20006;-71
2024/04/17 00:13:56;;;;;;;14.80;3.88;;;;;;;5.53;100.00;63490.88;5418820;26;20566;-72
2024/04/17 00:16:22;;;;;;;15.80;4.60;;;;;;;5.49;100.00;63533.66;5430097;26;20007;-72
2024/04/17 00:18:49;;;;;;;15.35;4.70;;;;;;;5.42;100.00;63520.09;5440841;26;20002;-72
2024/04/17 00:21:15;;;;;;;15.52;4.50;;;;;;;5.38;100.00;63508.97;5390614;26;20002;-72
2024/04/17 00:23:41;;;;;;;16.25;4.75;;;;;;;5.31;100.00;63485.03;5391194;26;20014;-72
2024/04/17 00:26:07;;;;;;;17.08;4.32;;;;;;;5.23;100.00;63512.41;5420940;26;20447;-72
2024/04/17 00:28:33;;;;;;;17.67;5.35;;;;;;;5.15;100.00;63527.91;5443185;26;20078;-71
2024/04/17 00:30:59;;;;;;;17.75;5.15;;;;;;;5.14;100.00;63487.38;5446775;26;19999;-71
2024/04/17 00:33:25;;;;;;;16.65;5.28;;;;;;;5.07;100.00;63474.38;5418429;26;20627;-73
2024/04/17 00:35:52;;;;;;;16.55;5.05;;;;;;;5.01;100.00;63491.53;5433076;26;20011;-72
2024/04/17 00:38:18;;;;;;;16.20;5.05;;;;;;;4.91;100.00;63478.34;5424612;26;20007;-72
2024/04/17 00:40:44;;;;;;;17.33;5.00;;;;;;;4.84;100.00;63444.09;5383732;26;19995;-71
2024/04/17 00:43:10;;;;;;;16.10;4.80;;;;;;;4.78;100.00;63458.69;5417847;26;20030;-72
2024/04/17 00:45:41;;;;;;;17.58;4.95;;;;;;;4.71;100.00;63448.81;5438853;26;19999;-72
2024/04/17 00:48:11;;;;;;;17.27;5.00;;;;;;;4.63;100.00;63489.09;5418575;26;20006;-72
2024/04/17 00:50:38;;;;;;;17.05;5.38;;;;;;;4.56;100.00;63435.25;5435898;26;19991;-72
2024/04/17 00:53:04;;;;;;;19.25;5.32;;;;;;;4.40;100.00;63399.28;5389983;26;20080;-72
2024/04/17 00:55:33;;;;;;;15.88;5.40;;;;;;;4.34;100.00;63400.91;5420466;26;20078;-72
2024/04/17 00:58:01;;;;;;;18.67;5.13;;;;;;;4.27;100.00;63429.34;5396636;26;19998;-72
2024/04/17 01:00:27;;;;;;;18.25;5.75;;;;;;;4.14;100.00;63370.88;5384124;26;20015;-71
2024/04/17 01:02:53;;;;;;;18.17;5.07;;;;;;;4.14;100.00;63373.44;5440063;26;20015;-71
2024/04/17 01:05:19;;;;;;;16.50;4.97;;;;;;;4.09;100.00;63363.25;5433317;26;19999;-71
2024/04/17 01:07:45;;;;;;;18.00;5.18;;;;;;;4.03;100.00;63372.09;5416655;26;20034;-71
2024/04/17 01:10:13;;;;;;;16.80;5.43;;;;;;;3.97;100.00;63370.56;5427236;26;20027;-71
2024/04/17 01:12:39;;;;;;;16.73;4.95;;;;;;;3.85;100.00;63313.78;5429023;26;20101;-72
2024/04/17 01:15:09;;;;;;;17.65;5.70;;;;;;;3.77;100.00;63333.31;5420218;26;19992;-71
2024/04/17 01:17:36;;;;;;;17.35;5.35;;;;;;;3.75;100.00;63320.75;5392953;26;20046;-71
2024/04/17 01:20:03;;;;;;;18.13;5.68;;;;;;;3.64;100.00;63298.16;5417385;26;19996;-71
2024/04/17 01:22:29;;;;;;;17.90;5.40;;;;;;;3.58;100.00;63312.69;5428107;26;19998;-71
2024/04/17 01:24:55;;;;;;;17.33;5.45;;;;;;;3.53;100.00;63299.94;5431392;26;20064;-72
2024/04/17 01:27:21;;;;;;;18.33;5.72;;;;;;;3.49;100.00;63328.53;5438790;26;20017;-71
2024/04/17 01:29:47;;;;;;;18.27;6.00;;;;;;;3.45;100.00;63308.56;5427160;26;20022;-71
2024/04/17 01:32:13;;;;;;;18.60;5.57;;;;;;;3.43;100.00;63330.16;5420729;26;19999;-70
2024/04/17 01:34:40;;;;;;;18.52;6.05;;;;;;;3.44;100.00;63313.16;5424584;26;20018;-71
2024/04/17 01:37:06;;;;;;;18.17;5.75;;;;;;;3.42;100.00;63331.06;5426638;26;20339;-71
2024/04/17 01:39:32;;;;;;;19.17;5.68;;;;;;;3.41;100.00;63288.59;5423868;26;20443;-71
2024/04/17 01:41:58;;;;;;;16.92;5.10;;;;;;;3.38;100.00;63301.31;5420492;26;20004;-71
2024/04/17 01:44:24;;;;;;;17.83;5.25;;;;;;;3.35;100.00;63285.63;5430158;26;20496;-71
2024/04/17 01:46:50;;;;;;;19.50;5.78;;;;;;;3.34;100.00;63325.84;5422674;26;20040;-71
2024/04/17 01:49:16;;;;;;;19.52;6.07;;;;;;;3.34;100.00;63302.03;5416906;26;20003;-71
2024/04/17 01:51:42;;;;;;;17.95;5.88;;;;;;;3.30;100.00;63311.06;5417582;26;20004;-70
2024/04/17 01:54:08;;;;;;;18.35;5.45;;;;;;;3.25;100.00;63295.16;5429741;26;21044;-72
2024/04/17 01:56:34;;;;;;;17.25;5.80;;;;;;;3.18;100.00;63285.34;5428083;26;20007;-70
2024/04/17 01:59:00;;;;;;;18.00;5.40;;;;;;;3.17;100.00;63296.56;5431969;26;20039;-72
2024/04/17 02:01:26;;;;;;;20.33;6.68;;;;;;;3.08;100.00;63271.59;5441887;26;20010;-72
2024/04/17 02:03:53;;;;;;;18.45;6.13;;;;;;;3.03;100.00;63270.66;5431348;26;19999;-71
2024/04/17 02:06:19;;;;;;;19.05;6.00;;;;;;;3.04;100.00;63246.47;5425103;26;20347;-73
2024/04/17 02:08:45;;;;;;;18.25;5.80;;;;;;;2.99;100.00;63254.38;5428350;26;20170;-72
2024/04/17 02:11:11;;;;;;;18.85;5.82;;;;;;;2.90;100.00;63254.69;5420460;26;20355;-71
2024/04/17 02:13:37;;;;;;;17.83;5.63;;;;;;;2.90;100.00;63254.13;5428262;26;20017;-72
2024/04/17 02:16:07;;;;;;;20.05;6.38;;;;;;;2.92;100.00;63292.53;5433717;26;20003;-71
2024/04/17 02:18:33;;;;;;;17.75;5.32;;;;;;;2.89;100.00;63268.53;5417142;26;20008;-72
2024/04/17 02:21:01;;;;;;;17.17;5.40;;;;;;;2.85;100.00;63243.41;5416974;26;20003;-71
2024/04/17 02:23:28;;;;;;;17.92;5.47;;;;;;;2.86;100.00;63224.41;5421197;26;20014;-71
2024/04/17 02:25:55;;;;;;;16.65;5.10;;;;;;;2.84;100.00;63262.94;5418173;26;20000;-72
2024/04/17 02:28:21;;;;;;;18.63;5.40;;;;;;;2.89;100.00;63284.03;5413035;26;20026;-71
2024/04/17 02:30:47;;;;;;;18.63;5.85;;;;;;;2.89;100.00;63250.47;5446460;26;20632;-71
2024/04/17 02:33:13;;;;;;;20.13;6.22;;;;;;;2.86;100.00;63218.69;5430137;26;19999;-71
2024/04/17 02:35:39;;;;;;;17.58;5.32;;;;;;;2.81;100.00;63262.22;5416768;26;20051;-71
2024/04/17 02:38:06;;;;;;;18.40;5.78;;;;;;;2.75;100.00;63264.38;5385370;26;20494;-71
2024/04/17 02:40:32;;;;;;;18.55;6.22;;;;;;;2.81;100.00;63234.34;5394471;26;20003;-72
2024/04/17 02:42:58;;;;;;;18.85;6.10;;;;;;;2.90;100.00;63288.25;5427120;26;20067;-71
2024/04/17 02:45:24;;;;;;;18.98;6.10;;;;;;;2.89;100.00;63269.09;5427772;26;20003;-71
2024/04/17 02:47:50;;;;;;;18.27;5.90;;;;;;;2.79;100.00;63243.00;5423674;26;20015;-71
2024/04/17 02:50:16;;;;;;;20.27;7.00;;;;;;;2.67;100.00;63234.25;5427080;26;20068;-71
2024/04/17 02:52:42;;;;;;;18.38;5.75;;;;;;;2.71;100.00;63274.84;5421443;26;19999;-72
2024/04/17 02:55:08;;;;;;;19.58;6.68;;;;;;;2.70;100.00;63251.06;5431545;26;20003;-72
2024/04/17 02:57:34;;;;;;;21.15;7.05;;;;;;;2.75;100.00;63222.50;5427382;26;20011;-71
2024/04/17 03:00:01;;;;;;;22.20;7.75;;;;;;;2.91;100.00;63283.66;5415159;26;20080;-71
2024/04/17 03:02:27;;;;;;;22.48;8.18;;;;;;;3.06;100.00;63304.97;5398561;26;20351;-72
2024/04/17 03:04:53;;;;;;;24.88;8.60;;;;;;;3.18;100.00;63277.00;5435195;26;20000;-72
2024/04/17 03:07:19;;;;;;;22.23;8.57;;;;;;;3.22;100.00;63289.22;5416072;26;20000;-72
2024/04/17 03:09:47;;;;;;;26.00;9.40;;;;;;;3.25;100.00;63310.66;5416324;26;20038;-72
2024/04/17 03:12:13;;;;;;;26.38;10.02;;;;;;;3.27;100.00;63299.97;5419272;26;20015;-72
2024/04/17 03:14:39;;;;;;;27.77;10.95;;;;;;;3.34;100.00;63312.38;5442583;26;20009;-72
2024/04/17 03:17:05;;;;;;;25.10;9.75;;;;;;;3.36;100.00;63304.81;5420225;26;20524;-72
2024/04/17 03:19:31;;;;;;;24.27;9.65;;;;;;;3.38;100.00;63317.41;5427844;26;20059;-71
2024/04/17 03:21:57;;;;;;;24.70;9.57;;;;;;;3.42;100.00;63320.72;5418623;26;22367;-71
2024/04/17 03:24:23;;;;;;;29.20;10.15;;;;;;;3.45;100.00;63316.88;5434126;26;20008;-72
2024/04/17 03:26:50;;;;;;;28.65;10.48;;;;;;;3.48;100.00;63327.41;5415923;26;20017;-71
2024/04/17 03:29:16;;;;;;;27.13;10.27;;;;;;;3.50;100.00;63327.06;5398640;26;20516;-70
2024/04/17 03:31:42;;;;;;;28.98;10.07;;;;;;;3.53;100.00;63320.06;5392078;26;20025;-70
2024/04/17 03:34:08;;;;;;;25.52;9.60;;;;;;;3.57;100.00;63319.34;5434931;26;19995;-71
2024/04/17 03:36:34;;;;;;;27.48;9.90;;;;;;;3.60;100.00;63320.09;5439195;26;20003;-71
2024/04/17 03:39:00;;;;;;;25.35;9.35;;;;;;;3.66;100.00;63339.72;5437148;26;20013;-71
2024/04/17 03:41:26;;;;;;;27.83;10.18;;;;;;;3.71;100.00;63327.19;5437386;26;19999;-71
2024/04/17 03:43:52;;;;;;;27.65;9.45;;;;;;;3.79;100.00;63372.31;5423607;26;20007;-71
2024/04/17 03:46:18;;;;;;;25.83;9.68;;;;;;;3.82;100.00;63392.63;5435661;26;20450;-71
2024/04/17 03:48:44;;;;;;;26.77;9.95;;;;;;;3.79;100.00;63336.09;5450384;26;20079;-72
2024/04/17 03:51:10;;;;;;;23.67;9.48;;;;;;;3.78;100.00;63370.66;5444726;26;19994;-71
2024/04/17 03:53:36;;;;;;;23.75;9.10;;;;;;;3.78;100.00;63366.03;5402509;26;20068;-70
2024/04/17 03:56:03;;;;;;;24.42;8.43;;;;;;;3.83;100.00;63314.13;5450159;26;20010;-72
2024/04/17 03:58:29;;;;;;;24.27;8.57;;;;;;;3.86;100.00;63360.88;5423228;26;19995;-72
2024/04/17 04:00:55;;;;;;;23.83;8.32;;;;;;;3.87;100.00;63382.72;5441065;26;20011;-70
2024/04/17 04:03:21;;;;;;;22.80;7.80;;;;;;;3.88;100.00;63366.28;5439187;26;20766;-70
2024/04/17 04:05:47;;;;;;;21.67;8.15;;;;;;;3.83;100.00;63360.13;5440317;26;20017;-71
2024/04/17 04:08:13;;;;;;;23.48;8.32;;;;;;;3.79;100.00;63351.63;5424159;26;20003;-70
2024/04/17 04:10:39;;;;;;;22.08;8.73;;;;;;;3.87;100.00;63372.91;5441700;26;20019;-72
2024/04/17 04:13:05;;;;;;;22.95;8.27;;;;;;;3.90;100.00;63368.50;5429136;26;20024;-72
2024/04/17 04:15:31;;;;;;;21.00;8.00;;;;;;;3.90;100.00;63415.06;5445886;26;20002;-71
2024/04/17 04:17:57;;;;;;;19.48;7.05;;;;;;;3.89;100.00;63406.19;5439157;26;20093;-72
2024/04/17 04:20:24;;;;;;;19.38;7.07;;;;;;;3.93;100.00;63382.19;5435167;26;20330;-73
2024/04/17 04:22:50;;;;;;;21.50;7.05;;;;;;;4.01;100.00;63415.88;5423917;26;20040;-73
2024/04/17 04:25:16;;;;;;;20.88;8.02;;;;;;;4.04;100.00;63380.41;5429778;26;19999;-72
2024/04/17 04:27:42;;;;;;;20.63;7.43;;;;;;;4.09;100.00;63391.72;5416480;26;20071;-72
2024/04/17 04:30:08;;;;;;;19.73;7.68;;;;;;;4.12;100.00;63423.53;5421220;26;20048;-73
2024/04/17 04:32:34;;;;;;;20.77;7.78;;;;;;;4.16;100.00;63427.97;5433496;26;20025;-72
2024/04/17 04:35:00;;;;;;;22.73;7.78;;;;;;;4.22;100.00;63399.91;5423881;26;19999;-72
2024/04/17 04:37:28;;;;;;;26.45;11.90;;;;;;;4.23;100.00;63398.44;5407964;26;20002;-72
2024/04/17 04:39:54;;;;;;;24.42;11.63;;;;;;;4.28;100.00;63433.06;5437469;26;20358;-72
2024/04/17 04:42:20;;;;;;;22.20;9.15;;;;;;;4.32;100.00;63401.28;5438351;26;20007;-72
2024/04/17 04:44:46;;;;;;;19.58;6.53;;;;;;;4.38;100.00;63430.72;5435136;26;19991;-72
2024/04/17 04:47:14;;;;;;;22.33;6.82;;;;;;;4.39;100.00;63419.41;5425624;26;20151;-72
2024/04/17 04:49:41;;;;;;;18.98;7.18;;;;;;;4.42;100.00;63434.59;5402683;26;20023;-71
2024/04/17 04:52:07;;;;;;;22.17;7.05;;;;;;;4.41;100.00;63426.28;5422305;26;20044;-72
2024/04/17 04:54:33;;;;;;;21.63;8.18;;;;;;;4.35;100.00;63425.31;5422911;26;20011;-71
2024/04/17 04:56:59;;;;;;;19.20;6.78;;;;;;;4.42;100.00;63419.06;5427078;26;20346;-72
2024/04/17 04:59:25;;;;;;;19.48;6.70;;;;;;;4.38;100.00;63412.59;5424999;26;20012;-71
2024/04/17 05:01:51;;;;;;;20.17;7.35;;;;;;;4.41;100.00;63444.41;5427664;26;20014;-70
2024/04/17 05:04:17;;;;;;;20.63;7.40;;;;;;;4.47;100.00;63435.56;5386226;26;20015;-70
2024/04/17 05:06:44;;;;;;;19.98;7.35;;;;;;;4.35;100.00;63448.63;5435634;26;20067;-71
2024/04/17 05:09:10;;;;;;;19.40;7.38;;;;;;;4.37;100.00;63432.16;5441607;26;20011;-71
2024/04/17 05:11:36;;;;;;;20.63;7.93;;;;;;;4.38;100.00;63446.78;5427806;26;20014;-71
2024/04/17 05:14:02;;;;;;;21.45;7.97;;;;;;;4.40;100.00;63445.88;5425984;26;20003;-70
2024/04/17 05:16:28;;;;;;;20.00;7.28;;;;;;;4.41;100.00;63459.94;5419162;26;20432;-70
2024/04/17 05:18:54;;;;;;;19.67;7.00;;;;;;;4.45;100.00;63441.09;5422377;26;20003;-69
2024/04/17 05:21:20;;;;;;;21.27;8.40;;;;;;;4.51;100.00;63434.28;5424474;26;19999;-70
2024/04/17 05:23:46;;;;;;;22.10;7.93;;;;;;;4.61;100.00;63442.84;5432368;26;20009;-72
2024/04/17 05:26:12;;;;;;;20.77;7.07;;;;;;;4.74;100.00;63459.94;5419841;26;20500;-72
2024/04/17 05:28:39;;;;;;;20.10;7.15;;;;;;;4.87;100.00;63479.06;5442547;26;20007;-73
2024/04/17 05:31:05;;;;;;;21.20;7.28;;;;;;;4.98;100.00;63509.50;5444409;26;20489;-72
2024/04/17 05:33:31;;;;;;;22.10;9.00;;;;;;;5.08;100.00;63496.78;5435604;26;20080;-72
2024/04/17 05:35:57;;;;;;;20.75;6.90;;;;;;;5.18;100.00;63520.34;5403521;26;19991;-73
2024/04/17 05:38:23;;;;;;;19.95;7.13;;;;;;;5.25;100.00;63517.78;5418407;26;20390;-72
2024/04/17 05:40:49;;;;;;;19.15;7.15;;;;;;;5.25;100.00;63517.78;5432543;26;20075;-73
2024/04/17 05:43:16;;;;;;;19.95;7.47;;;;;;;5.25;100.00;63517.78;5434870;26;20065;-72
2024/04/17 05:45:43;;;;;;;22.88;8.27;;;;;;;5.25;100.00;63517.78;5423592;26;19999;-72
2024/04/17 05:48:09;;;;;;;20.60;6.95;;;;;;;5.25;100.00;63517.78;5445119;26;19995;-72
2024/04/17 05:50:35;;;;;;;21.17;7.07;;;;;;;5.25;100.00;63517.78;5429470;26;20004;-72
2024/04/17 05:53:01;;;;;;;20.65;6.70;;;;;;;5.25;100.00;63517.78;5406924;26;20396;-73
2024/04/17 05:55:28;;;;;;;20.40;6.82;;;;;;;5.25;100.00;63517.78;5427426;26;20018;-72
2024/04/17 05:57:54;;;;;;;19.27;6.88;;;;;;;5.25;100.00;63517.78;5444550;26;19999;-72
2024/04/17 06:00:20;;;;;;;19.23;6.70;;;;;;;5.25;100.00;63517.78;5429309;26;19999;-72
2024/04/17 06:02:47;;;;;;;19.17;6.55;;;;;;;5.80;100.00;63600.88;5440019;26;19999;-72
2024/04/17 06:05:13;;;;;;;20.00;6.97;;;;;;;5.80;100.00;63600.88;5434910;26;20003;-71
2024/04/17 06:07:40;;;;;;;18.83;6.47;;;;;;;5.80;100.00;63600.88;5431998;26;20450;-71
2024/04/17 06:10:06;;;;;;;18.30;6.28;;;;;;;5.80;100.00;63600.88;5442592;26;19999;-72
2024/04/17 06:12:33;;;;;;;19.92;6.38;;;;;;;5.80;100.00;63600.88;5437258;26;20078;-72
2024/04/17 06:14:59;;;;;;;19.10;6.40;;;;;;;5.74;100.00;63565.63;5440338;26;19995;-72
2024/04/17 06:17:25;;;;;;;19.73;6.80;;;;;;;5.74;100.00;63565.63;5442958;26;20068;-71
2024/04/17 06:19:52;;;;;;;19.88;7.20;;;;;;;5.74;100.00;63565.63;5437660;26;20085;-72
2024/04/17 06:22:19;;;;;;;19.63;7.22;;;;;;;5.74;100.00;63565.63;5426708;26;20026;-72
2024/04/17 06:24:45;;;;;;;18.70;6.82;;;;;;;5.74;100.00;63565.63;5438750;26;20047;-72
2024/04/17 06:27:12;;;;;;;20.30;7.75;;;;;;;5.74;100.00;63565.63;5438211;26;20408;-71
2024/04/17 06:29:38;;;;;;;21.48;7.78;;;;;;;5.74;100.00;63565.63;5439612;26;20745;-71
2024/04/17 06:32:04;;;;;;;21.85;7.03;;;;;;;5.74;100.00;63565.63;5443027;26;19999;-72
2024/04/17 06:34:31;;;;;;;23.13;7.63;;;;;;;5.74;100.00;63565.63;5430262;26;20076;-71
2024/04/17 06:36:57;;;;;;;20.95;6.80;;;;;;;5.74;100.00;63565.63;5437532;26;19996;-71
2024/04/17 06:39:23;;;;;;;24.08;8.55;;;;;;;5.74;100.00;63565.63;5444655;26;20010;-72
2024/04/17 06:41:50;;;;;;;25.15;8.57;;;;;;;5.74;100.00;63565.63;5440232;26;19999;-72
2024/04/17 06:44:16;;;;;;;23.52;8.93;;;;;;;5.74;100.00;63565.63;5432858;26;20452;-72
2024/04/17 06:46:43;;;;;;;24.65;10.15;;;;;;;5.74;100.00;63565.63;5439789;26;20108;-71
2024/04/17 06:49:09;;;;;;;24.25;9.50;;;;;;;5.74;100.00;63565.63;5436453;26;20009;-72
2024/04/17 06:51:35;;;;;;;23.20;9.50;;;;;;;5.74;100.00;63565.63;5429752;26;20394;-72
2024/04/17 06:54:02;;;;;;;22.98;9.13;;;;;;;5.74;100.00;63565.63;5439368;26;20404;-72
2024/04/17 06:56:28;;;;;;;24.92;9.07;;;;;;;5.74;100.00;63565.63;5416653;26;20426;-71
2024/04/17 06:58:54;;;;;;;28.05;10.13;;;;;;;-143.49;100.00;63565.63;5396545;26;20071;-71
2024/04/17 07:01:21;;;;;;;23.63;9.65;;;;;;;5.74;100.00;63565.63;5436544;26;20340;-71
2024/04/17 07:03:47;;;;;;;24.98;9.20;;;;;;;5.74;100.00;63565.63;5441236;26;19999;-71
2024/04/17 07:06:13;;;;;;;26.73;10.48;;;;;;;-143.50;100.00;48872.09;5420519;26;20014;-71
2024/04/17 07:08:39;;;;;;;27.45;9.63;;;;;;;-143.50;100.00;59860.19;5418862;26;19995;-71
2024/04/17 07:11:05;;;;;;;25.73;9.05;;;;;;;5.74;100.00;63565.63;5423024;26;20014;-71
2024/04/17 07:13:31;;;;;;;24.48;9.40;;;;;;;-143.50;100.00;59860.19;5410806;26;19996;-72
2024/04/17 07:15:57;;;;;;;22.80;8.85;;;;;;;;;;5415786;26;20003;-71
2024/04/17 07:18:26;;;;;;;24.90;9.20;;;;;;;5.74;100.00;63565.63;5428405;26;20001;-71
2024/04/17 07:20:53;;;;;;;26.05;9.70;;;;;;;-143.50;80.02;47948.97;5437999;26;19995;-72
2024/04/17 07:23:19;;;;;;;25.80;9.55;;;;;;;5.74;100.00;63565.63;5422889;26;20507;-72
2024/04/17 07:25:45;;;;;;;23.10;9.82;;;;;;;5.74;100.00;63565.63;5427557;26;20349;-70
2024/04/17 07:28:11;;;;;;;25.05;10.32;;;;;;;-143.49;100.00;63565.63;5421411;26;20014;-72
2024/04/17 07:30:39;;;;;;;23.20;9.38;;;;;;;-143.50;100.00;59860.19;5435949;26;19999;-71
2024/04/17 07:33:05;;;;;;;24.10;9.77;;;;;;;-143.50;100.00;59860.19;5399249;26;19999;-71
2024/04/17 07:35:31;;;;;;;22.10;9.02;;;;;;;-143.50;100.00;59860.19;5420374;26;20000;-72
2024/04/17 07:37:57;;;;;;;21.48;8.90;;;;;;;-143.50;100.00;59860.19;5395101;26;19995;-71
2024/04/17 07:40:23;;;;;;;19.88;7.65;;;;;;;-143.50;100.00;59860.19;5400958;26;19995;-71
2024/04/17 07:42:49;;;;;;;21.88;8.27;;;;;;;-143.50;100.00;59860.19;5433550;26;20000;-71
2024/04/17 07:45:16;;;;;;;20.55;8.00;;;;;;;-143.50;100.00;59860.19;5425245;26;20017;-71
2024/04/17 07:47:42;;;;;;;19.95;7.13;;;;;;;-143.50;100.00;59860.19;5415793;26;20035;-72
2024/04/17 07:50:08;;;;;;;18.17;6.55;;;;;;;-143.50;100.00;59860.19;5427267;26;20063;-72
2024/04/17 07:52:34;;;;;;;18.23;6.40;;;;;;;-143.50;100.00;59860.19;5425166;26;20459;-72
2024/04/17 07:55:00;;;;;;;18.85;6.45;;;;;;;-143.50;100.00;59860.19;5439225;26;20055;-71
2024/04/17 07:57:26;;;;;;;18.48;6.65;;;;;;;-143.50;100.00;59860.19;5424206;26;20010;-71
2024/04/17 07:59:53;;;;;;;19.58;7.60;;;;;;;-143.50;100.00;59860.19;5418365;26;19999;-71
2024/04/17 08:02:19;;;;;;;21.48;8.00;;;;;;;-143.50;100.00;59860.19;5403947;26;20014;-71
2024/04/17 08:04:45;;;;;;;20.10;7.75;;;;;;;-143.50;100.00;59860.19;5433374;26;19996;-71
2024/04/17 08:07:12;;;;;;;20.50;7.93;;;;;;;-143.50;100.00;59860.19;5437448;26;20005;-72
2024/04/17 08:09:39;;;;;;;19.40;8.55;;;;;;;-143.50;100.00;59860.19;5434519;26;20493;-72
2024/04/17 08:12:05;;;;;;;19.23;7.22;;;;;;;-143.50;100.00;59860.19;5437270;26;20014;-72
2024/04/17 08:14:31;;;;;;;20.45;7.85;;;;;;;-143.50;100.00;59860.19;5422447;26;19996;-71
2024/04/17 08:16:57;;;;;;;19.95;7.22;;;;;;;-143.50;100.00;59860.19;5424792;26;20003;-71
2024/04/17 08:19:23;;;;;;;21.40;8.27;;;;;;;-143.50;79.18;59860.19;5417777;26;20413;-71
2024/04/17 08:21:50;;;;;;;20.52;8.23;;;;;;;-143.50;100.00;59860.19;5427842;26;20069;-71
2024/04/17 08:24:16;;;;;;;20.83;7.40;;;;;;;-143.50;100.00;59860.19;5391974;26;20738;-72
2024/04/17 08:26:42;;;;;;;21.77;7.32;;;;;;;-143.50;100.00;59860.19;5434477;26;20010;-71
2024/04/17 08:29:08;;;;;;;18.50;6.75;;;;;;;-143.50;100.00;59860.19;5423705;26;20014;-71
2024/04/17 08:31:34;;;;;;;19.35;6.85;;;;;;;-143.50;100.00;59860.19;5444796;26;19996;-71
2024/04/17 08:34:00;;;;;;;20.67;7.03;;;;;;;-143.50;100.00;59860.19;5420709;26;20009;-71
2024/04/17 08:36:26;;;;;;;18.92;6.82;;;;;;;-143.50;100.00;59860.19;5438045;26;20531;-71
2024/04/17 08:38:55;;;;;;;19.00;7.20;;;;;;;-143.50;100.00;59860.19;5430711;26;20010;-72
2024/04/17 08:41:28;;;;;;;20.88;7.40;;;;;;;-143.50;100.00;59860.19;5438490;26;20003;-71
2024/04/17 08:43:57;;;;;;;24.27;7.43;;;;;;;-143.50;100.00;59860.19;5425410;26;20010;-72
2024/04/17 08:46:24;;;;;;;20.60;8.15;;;;;;;-143.50;100.00;59860.19;5389763;26;20027;-72
2024/04/17 08:48:50;;;;;;;19.95;7.78;;;;;;;-143.50;100.00;59860.19;5419893;26;20416;-72
2024/04/17 08:51:17;;;;;;;18.63;7.47;;;;;;;-143.50;100.00;59860.19;5428561;26;20007;-72
2024/04/17 08:53:44;;;;;;;18.15;6.72;;;;;;;-143.50;100.00;59860.19;5422332;26;20006;-71
2024/04/17 08:56:10;;;;;;;19.80;6.82;;;;;;;-143.50;100.00;59860.19;5398747;26;20014;-72
2024/04/17 08:58:36;;;;;;;19.63;6.78;;;;;;;-143.50;100.00;59860.19;5442171;26;20076;-71
2024/04/17 09:01:03;;;;;;;18.75;6.60;;;;;;;-143.50;100.00;59860.19;5398056;26;20323;-71
2024/04/17 09:03:30;;;;;;;17.33;6.00;;;;;;;-143.50;100.00;59860.19;5422611;26;19994;-71
2024/04/17 09:05:56;;;;;;;18.00;6.93;;;;;;;-143.50;100.00;59860.19;5419606;26;20018;-71
2024/04/17 09:08:23;;;;;;;19.10;7.38;;;;;;;-143.50;100.00;59860.19;5396462;26;20003;-71
2024/04/17 09:10:49;;;;;;;18.67;6.47;;;;;;;-143.50;100.00;59860.19;5407841;26;20010;-71
2024/04/17 09:13:16;;;;;;;19.52;6.70;;;;;;;-143.50;100.00;59860.19;5426572;26;19999;-71
2024/04/17 09:15:42;;;;;;;21.63;8.00;;;;;;;-143.50;100.00;59860.19;5419067;26;20019;-71
2024/04/17 09:18:08;;;;;;;22.38;8.70;;;;;;;-143.50;100.00;59860.19;5433823;26;20462;-72
2024/04/17 09:20:35;;;;;;;18.77;7.15;;;;;;;-143.50;100.00;59860.19;5440970;26;20011;-71
2024/04/17 09:23:07;;;;;;;19.05;5.95;;;;;;;-143.50;100.00;59860.19;5433828;26;20377;-71
2024/04/17 09:25:33;;;;;;;18.85;7.35;;;;;;;-143.50;100.00;59860.19;5393196;26;20006;-71
2024/04/17 09:28:01;;;;;;;18.90;7.45;;;;;;;-143.50;100.00;59860.19;5397501;26;19998;-72
2024/04/17 09:30:28;;;;;;;19.13;7.05;;;;;;;-143.50;100.00;59860.19;5439189;26;20003;-71
2024/04/17 09:32:54;;;;;;;17.60;6.70;;;;;;;-143.50;100.00;59860.19;5417274;26;19996;-71
2024/04/17 09:35:21;;;;;;;16.75;5.97;;;;;;;-143.50;100.00;59860.19;5419153;26;19995;-71
2024/04/17 09:37:47;;;;;;;17.63;6.90;;;;;;;-143.50;100.00;59860.19;5400961;26;19995;-72
2024/04/17 09:40:13;;;;;;;18.88;6.78;;;;;;;-143.50;100.00;59860.19;5390516;26;19995;-71
2024/04/17 09:42:42;;;;;;;17.13;6.50;;;;;;;-143.50;100.00;59860.19;5426619;26;19996;-71
2024/04/17 09:45:13;;;;;;;17.70;6.18;;;;;;;-143.50;100.00;59860.19;5426339;26;20003;-72
2024/04/17 09:47:43;;;;;;;18.92;6.85;;;;;;;;;;5424641;26;19999;-71
2024/04/17 09:50:14;;;;;;;17.73;6.45;;;;;;;5.74;100.00;63565.63;5427412;26;20086;-71
2024/04/17 09:52:42;;;;;;;19.73;7.55;;;;;;;5.74;100.00;63565.63;5429127;26;19996;-71
2024/04/17 09:55:09;;;;;;;16.80;5.85;;;;;;;5.74;100.00;63565.63;5390309;26;20011;-71
2024/04/17 09:57:35;;;;;;;19.48;6.60;;;;;;;-143.50;100.00;59860.19;5441799;26;19996;-72
2024/04/17 10:00:02;;;;;;;18.75;6.45;;;;;;;5.74;100.00;63565.63;5394843;26;19999;-71
2024/04/17 10:02:28;;;;;;;17.83;6.03;;;;;;;-143.50;100.00;59860.19;5395832;26;20000;-71
2024/04/17 10:04:55;;;;;;;23.05;8.18;;;;;;;-143.50;100.00;48872.09;5419531;26;20018;-71
2024/04/17 10:07:24;;;;;;;28.40;9.93;;;;;;;5.74;100.00;63565.63;5431317;26;20408;-71
2024/04/17 10:09:50;;;;;;;17.33;5.90;;;;;;;-143.50;100.00;59860.19;5414325;26;20450;-71
2024/04/17 10:12:16;;;;;;;19.00;6.72;;;;;;;-143.50;100.00;59860.19;5387118;26;20072;-71
2024/04/17 10:14:42;;;;;;;16.10;4.88;;;;;;;-143.50;100.00;59860.19;5404722;26;20015;-71
2024/04/17 10:17:09;;;;;;;15.30;4.90;;;;;;;-143.50;100.00;59860.19;5439883;26;20014;-71
2024/04/17 10:19:35;;;;;;;17.05;5.15;;;;;;;-143.50;100.00;59860.19;5393072;26;19999;-71
2024/04/17 10:22:05;;;;;;;16.15;5.63;;;;;;;-143.50;100.00;59860.19;5428532;26;20438;-71
2024/04/17 10:24:31;;;;;;;16.83;5.38;;;;;;;-143.50;100.00;59860.19;5443415;26;20010;-71
2024/04/17 10:26:57;;;;;;;16.67;5.32;;;;;;;-143.50;100.00;59860.19;5410704;26;20071;-71
2024/04/17 10:29:26;;;;;;;15.98;4.82;;;;;;;-143.50;100.00;59860.19;5439965;26;19999;-71
2024/04/17 10:32:00;;;;;;;16.55;4.93;;;;;;;-143.50;100.00;59860.19;5428527;26;19996;-71
2024/04/17 10:34:41;;;;;;;16.33;4.90;;;;;;;-143.50;100.00;59860.19;5435664;26;20075;-71
2024/04/17 10:37:09;;;;;;;16.88;4.97;;;;;;;-143.50;100.00;59860.19;5439204;26;20007;-71
2024/04/17 10:39:38;;;;;;;15.07;4.70;;;;;;;-143.50;100.00;59860.19;5422947;26;20077;-71
2024/04/17 10:42:04;;;;;;;14.63;4.40;;;;;;;-143.50;100.00;59860.19;5396884;26;20011;-71
2024/04/17 10:44:31;;;;;;;16.50;5.00;;;;;;;-143.50;100.00;59860.19;5423009;26;19996;-71
2024/04/17 10:47:05;;;;;;;15.50;4.60;;;;;;;-143.50;100.00;59860.19;5390402;26;19995;-72
2024/04/17 10:49:38;;;;;;;14.98;4.20;;;;;;;-143.50;100.00;59860.19;5426257;26;20015;-73
2024/04/17 10:52:05;;;;;;;16.27;5.47;;;;;;;-143.50;100.00;59860.19;5427077;26;20469;-72
2024/04/17 10:54:33;;;;;;;15.13;4.43;;;;;;;-143.50;100.00;59860.19;5426156;26;20028;-71
2024/04/17 10:56:59;;;;;;;14.77;4.20;;;;;;;-143.50;100.00;59860.19;5406098;26;20327;-71
2024/04/17 10:59:26;;;;;;;18.63;6.20;;;;;;;-143.50;100.00;59860.19;5392136;26;19992;-71
2024/04/17 11:01:52;;;;;;;15.57;5.50;;;;;;;-143.50;100.00;59860.19;5417279;26;20006;-71
2024/04/17 11:04:18;;;;;;;14.82;4.60;;;;;;;-143.50;100.00;59860.19;5403952;26;20011;-72
2024/04/17 11:06:45;;;;;;;18.73;4.65;;;;;;;-143.50;100.00;59860.19;5438647;26;20003;-71
2024/04/17 11:09:11;;;;;;;21.25;6.65;;;;;;;-143.50;100.00;59860.19;5395704;26;20003;-72
2024/04/17 11:11:38;;;;;;;20.05;6.45;;;;;;;-143.50;100.00;59860.19;5429810;26;20006;-72
2024/04/17 11:14:13;;;;;;;16.42;4.97;;;;;;;-143.50;100.00;59860.19;5396608;26;20015;-71